createdAt,value
2022-09-01T00:00:49.958Z,16.6
2022-09-01T00:02:50.470Z,16.6
2022-09-01T00:04:50.294Z,16.6
2022-09-01T00:06:50.242Z,16.6
2022-09-01T00:08:50.354Z,16.6
2022-09-01T00:10:50.428Z,16.6
2022-09-01T00:12:50.493Z,16.6
2022-09-01T00:14:50.293Z,16.6
2022-09-01T00:16:52.225Z,16.6
2022-09-01T00:18:50.039Z,16.6
2022-09-01T00:20:50.889Z,16.6
2022-09-01T00:22:50.781Z,16.6
2022-09-01T00:24:50.313Z,16.6
2022-09-01T00:26:50.681Z,16.6
2022-09-01T00:28:49.944Z,16.6
2022-09-01T00:30:50.345Z,16.6
2022-09-01T00:32:50.874Z,16.6
2022-09-01T00:34:50.505Z,16.6
2022-09-01T00:36:50.835Z,16.6
2022-09-01T00:38:50.084Z,16.6
2022-09-01T00:40:50.542Z,16.6
2022-09-01T00:42:50.380Z,16.5
2022-09-01T00:44:50.442Z,16.5
2022-09-01T00:46:56.403Z,16.5
2022-09-01T00:48:50.615Z,16.5
2022-09-01T00:50:55.031Z,16.5
2022-09-01T00:52:49.963Z,16.5
2022-09-01T00:54:50.078Z,16.5
2022-09-01T00:56:58.416Z,16.5
2022-09-01T00:58:50.301Z,16.4
2022-09-01T01:00:50.319Z,16.4
2022-09-01T01:02:50.893Z,16.4
2022-09-01T01:04:49.951Z,16.3
2022-09-01T01:06:50.232Z,16.3
2022-09-01T01:08:50.082Z,16.3
2022-09-01T01:10:50.639Z,16.3
2022-09-01T01:12:50.674Z,16.2
2022-09-01T01:14:51.355Z,16.2
2022-09-01T01:16:50.769Z,16.2
2022-09-01T01:18:50.772Z,16.2
2022-09-01T01:20:50.660Z,16.2
2022-09-01T01:22:49.961Z,16.2
2022-09-01T01:24:50.727Z,16.1
2022-09-01T01:26:49.941Z,16.1
2022-09-01T01:28:55.142Z,16.1
2022-09-01T01:30:50.721Z,16.1
2022-09-01T01:32:50.709Z,16.1
2022-09-01T01:34:50.079Z,16.0
2022-09-01T01:36:50.104Z,16.0
2022-09-01T01:38:50.163Z,16.0
2022-09-01T01:40:50.280Z,16.0
2022-09-01T01:42:50.345Z,15.9
2022-09-01T01:44:50.189Z,15.9
2022-09-01T01:46:50.592Z,15.9
2022-09-01T01:48:50.541Z,15.9
2022-09-01T01:50:50.620Z,15.9
2022-09-01T01:52:58.927Z,15.9
2022-09-01T01:54:49.994Z,15.9
2022-09-01T01:56:50.436Z,15.9
2022-09-01T01:58:50.543Z,15.9
2022-09-01T02:00:50.265Z,15.8
2022-09-01T02:02:50.519Z,15.8
2022-09-01T02:04:49.997Z,15.8
2022-09-01T02:06:50.000Z,15.8
2022-09-01T02:08:50.400Z,15.8
2022-09-01T02:10:50.300Z,15.8
2022-09-01T02:12:50.170Z,15.8
2022-09-01T02:14:50.487Z,15.8
2022-09-01T02:16:50.830Z,15.8
2022-09-01T02:18:50.080Z,15.7
2022-09-01T02:20:50.883Z,15.7
2022-09-01T02:22:50.168Z,15.7
2022-09-01T02:24:50.099Z,15.7
2022-09-01T02:26:50.363Z,15.7
2022-09-01T02:28:56.452Z,15.6
2022-09-01T02:30:50.755Z,15.6
2022-09-01T02:32:50.675Z,15.6
2022-09-01T02:34:50.234Z,15.6
2022-09-01T02:36:50.284Z,15.5
2022-09-01T02:38:58.783Z,15.5
2022-09-01T02:40:50.788Z,15.5
2022-09-01T02:42:50.788Z,15.5
2022-09-01T02:44:50.682Z,15.4
2022-09-01T02:46:50.414Z,15.4
2022-09-01T02:48:50.209Z,15.4
2022-09-01T02:50:50.251Z,15.4
2022-09-01T02:52:50.082Z,15.3
2022-09-01T02:54:50.239Z,15.3
2022-09-01T02:56:50.566Z,15.2
2022-09-01T02:58:50.872Z,15.2
2022-09-01T03:00:51.063Z,15.2
2022-09-01T03:02:50.137Z,15.1
2022-09-01T03:04:50.889Z,15.0
2022-09-01T03:06:49.930Z,15.0
2022-09-01T03:08:50.658Z,15.0
2022-09-01T03:10:50.672Z,15.0
2022-09-01T03:12:50.486Z,14.9
2022-09-01T03:14:50.510Z,14.9
2022-09-01T03:16:50.933Z,14.8
2022-09-01T03:18:50.075Z,14.8
2022-09-01T03:20:50.798Z,14.8
2022-09-01T03:22:50.812Z,14.7
2022-09-01T03:24:49.893Z,14.6
2022-09-01T03:26:50.769Z,14.6
2022-09-01T03:28:50.604Z,14.6
2022-09-01T03:30:50.629Z,14.6
2022-09-01T03:32:50.771Z,14.5
2022-09-01T03:34:50.046Z,14.4
2022-09-01T03:36:50.294Z,14.4
2022-09-01T03:38:50.658Z,14.4
2022-09-01T03:40:50.329Z,14.4
2022-09-01T03:42:50.559Z,14.3
2022-09-01T03:44:50.240Z,14.3
2022-09-01T03:46:50.515Z,14.3
2022-09-01T03:48:50.314Z,14.2
2022-09-01T03:50:50.394Z,14.2
2022-09-01T03:52:50.290Z,14.2
2022-09-01T03:54:50.202Z,14.2
2022-09-01T03:56:50.552Z,14.2
2022-09-01T03:58:50.341Z,14.1
2022-09-01T04:00:50.559Z,14.0
2022-09-01T04:02:56.626Z,14.0
2022-09-01T04:04:52.886Z,14.0
2022-09-01T04:06:50.033Z,14.0
2022-09-01T04:08:50.060Z,13.9
2022-09-01T04:10:54.981Z,13.9
2022-09-01T04:12:49.885Z,13.8
2022-09-01T04:14:50.682Z,13.8
2022-09-01T04:16:50.951Z,13.8
2022-09-01T04:18:50.035Z,13.8
2022-09-01T04:20:50.072Z,13.7
2022-09-01T04:22:50.782Z,13.7
2022-09-01T04:24:50.618Z,13.7
2022-09-01T04:26:50.691Z,13.6
2022-09-01T04:28:50.626Z,13.6
2022-09-01T04:30:54.269Z,13.5
2022-09-01T04:32:50.109Z,13.5
2022-09-01T04:34:50.585Z,13.5
2022-09-01T04:36:54.895Z,13.5
2022-09-01T04:38:50.768Z,13.4
2022-09-01T04:40:51.077Z,13.4
2022-09-01T04:42:50.172Z,13.4
2022-09-01T04:44:49.986Z,13.3
2022-09-01T04:46:50.124Z,13.3
2022-09-01T04:48:51.125Z,13.3
2022-09-01T04:50:50.182Z,13.2
2022-09-01T04:52:49.958Z,13.2
2022-09-01T04:54:49.980Z,13.2
2022-09-01T04:56:50.151Z,13.2
2022-09-01T04:58:50.178Z,13.2
2022-09-01T05:00:50.365Z,13.2
2022-09-01T05:02:53.652Z,13.2
2022-09-01T05:04:50.898Z,13.2
2022-09-01T05:06:50.055Z,13.2
2022-09-01T05:08:50.827Z,13.2
2022-09-01T05:10:50.711Z,13.3
2022-09-01T05:12:49.989Z,13.3
2022-09-01T05:14:50.854Z,13.4
2022-09-01T05:16:50.491Z,13.4
2022-09-01T05:18:50.424Z,13.4
2022-09-01T05:20:50.167Z,13.4
2022-09-01T05:22:50.128Z,13.5
2022-09-01T05:24:50.102Z,13.6
2022-09-01T05:26:50.368Z,13.7
2022-09-01T05:28:50.357Z,13.8
2022-09-01T05:30:50.165Z,13.9
2022-09-01T05:32:50.179Z,13.9
2022-09-01T05:34:50.715Z,14.1
2022-09-01T05:36:50.836Z,14.2
2022-09-01T05:38:50.883Z,14.2
2022-09-01T05:40:50.981Z,14.2
2022-09-01T05:42:50.425Z,14.3
2022-09-01T05:44:53.154Z,14.4
2022-09-01T05:46:50.595Z,14.5
2022-09-01T05:48:50.801Z,14.5
2022-09-01T05:50:50.873Z,14.6
2022-09-01T05:52:50.968Z,14.7
2022-09-01T05:54:50.636Z,14.7
2022-09-01T05:56:50.874Z,14.8
2022-09-01T05:59:24.654Z,14.8
2022-09-01T06:00:50.322Z,14.8
2022-09-01T06:02:50.682Z,14.9
2022-09-01T06:04:50.132Z,15.0
2022-09-01T06:07:12.692Z,15.0
2022-09-01T06:08:50.422Z,15.0
2022-09-01T06:10:50.389Z,15.1
2022-09-01T06:12:55.379Z,15.2
2022-09-01T06:14:50.491Z,15.2
2022-09-01T06:16:50.611Z,15.3
2022-09-01T06:18:55.942Z,15.3
2022-09-01T06:20:50.912Z,15.3
2022-09-01T06:22:50.704Z,15.4
2022-09-01T06:25:03.397Z,15.4
2022-09-01T06:26:50.868Z,15.4
2022-09-01T06:28:50.714Z,15.4
2022-09-01T06:30:50.709Z,15.5
2022-09-01T06:32:50.808Z,15.6
2022-09-01T06:34:50.218Z,15.6
2022-09-01T06:36:50.613Z,15.7
2022-09-01T06:38:50.475Z,15.7
2022-09-01T06:40:55.488Z,15.8
2022-09-01T06:42:50.559Z,15.8
2022-09-01T06:44:50.420Z,15.9
2022-09-01T06:46:50.885Z,15.9
2022-09-01T06:48:49.998Z,15.9
2022-09-01T06:51:21.181Z,16.0
2022-09-01T06:53:35.578Z,16.1
2022-09-01T06:54:49.970Z,16.2
2022-09-01T06:56:54.471Z,16.2
2022-09-01T06:58:50.926Z,16.2
2022-09-01T07:00:53.154Z,16.2
2022-09-01T07:02:50.197Z,16.3
2022-09-01T07:04:50.757Z,16.3
2022-09-01T07:09:21.700Z,16.3
2022-09-01T07:12:07.123Z,16.3
2022-09-01T07:13:07.117Z,16.3
2022-09-01T07:17:24.224Z,16.4
2022-09-01T07:18:59.306Z,16.5
2022-09-01T07:21:39.565Z,16.6
2022-09-01T07:23:14.387Z,16.6
2022-09-01T07:25:20.624Z,16.6
2022-09-01T07:26:49.992Z,16.7
2022-09-01T07:28:50.646Z,16.8
2022-09-01T07:30:50.224Z,16.8
2022-09-01T07:32:50.237Z,16.9
2022-09-01T07:34:51.628Z,16.9
2022-09-01T07:39:48.284Z,17.0
2022-09-01T07:44:50.088Z,17.1
2022-09-01T07:47:51.726Z,17.1
2022-09-01T07:49:33.967Z,17.2
2022-09-01T07:51:36.303Z,17.4
2022-09-01T07:52:50.672Z,17.4
2022-09-01T07:54:50.579Z,17.4
2022-09-01T07:56:50.020Z,17.5
2022-09-01T07:58:49.920Z,17.6
2022-09-01T08:00:50.062Z,17.6
2022-09-01T08:02:57.709Z,17.7
2022-09-01T08:04:50.079Z,17.8
2022-09-01T08:06:50.231Z,17.9
2022-09-01T08:08:49.971Z,18.0
2022-09-01T08:10:50.994Z,18.1
2022-09-01T08:12:58.302Z,18.1
2022-09-01T08:15:40.786Z,18.2
2022-09-01T08:16:54.141Z,18.3
2022-09-01T08:18:51.272Z,18.4
2022-09-01T08:20:50.337Z,18.4
2022-09-01T08:22:50.366Z,18.4
2022-09-01T08:24:50.075Z,18.5
2022-09-01T08:26:50.168Z,18.6
2022-09-01T08:28:55.947Z,18.7
2022-09-01T08:30:53.365Z,18.7
2022-09-01T08:32:50.462Z,18.7
2022-09-01T08:34:50.073Z,18.9
2022-09-01T08:36:50.219Z,19.0
2022-09-01T08:38:51.794Z,19.0
2022-09-01T08:40:54.797Z,19.1
2022-09-01T08:42:50.810Z,19.2
2022-09-01T08:44:50.770Z,19.2
2022-09-01T08:46:50.424Z,19.2
2022-09-01T08:49:27.699Z,19.2
2022-09-01T08:50:53.393Z,19.3
2022-09-01T08:52:53.511Z,19.3
2022-09-01T08:54:50.614Z,19.4
2022-09-01T08:56:50.008Z,19.4
2022-09-01T08:58:51.051Z,19.4
2022-09-01T09:00:57.990Z,19.4
2022-09-01T09:02:50.995Z,19.4
2022-09-01T09:04:50.078Z,19.4
2022-09-01T09:06:50.148Z,19.5
2022-09-01T09:08:50.666Z,19.5
2022-09-01T09:10:51.971Z,19.5
2022-09-01T09:12:49.959Z,19.6
2022-09-01T09:14:50.624Z,19.7
2022-09-01T09:16:54.279Z,19.8
2022-09-01T09:18:57.158Z,19.8
2022-09-01T09:20:50.026Z,19.9
2022-09-01T09:22:50.570Z,19.9
2022-09-01T09:24:50.685Z,19.9
2022-09-01T09:26:50.112Z,20.0
2022-09-01T09:28:50.149Z,20.0
2022-09-01T09:30:50.313Z,20.0
2022-09-01T09:33:48.475Z,20.1
2022-09-01T09:34:50.369Z,20.2
2022-09-01T09:36:57.638Z,20.2
2022-09-01T09:38:50.670Z,20.2
2022-09-01T09:41:20.240Z,20.3
2022-09-01T09:42:50.829Z,20.4
2022-09-01T09:44:50.767Z,20.4
2022-09-01T09:46:50.642Z,20.4
2022-09-01T09:48:51.414Z,20.6
2022-09-01T09:50:51.267Z,20.6
2022-09-01T09:52:50.150Z,20.6
2022-09-01T09:54:50.214Z,20.6
2022-09-01T09:56:50.448Z,20.6
2022-09-01T09:58:51.653Z,20.6
2022-09-01T10:00:50.986Z,20.6
2022-09-01T10:02:50.984Z,20.7
2022-09-01T10:04:56.415Z,20.7
2022-09-01T10:06:51.428Z,20.8
2022-09-01T10:08:50.890Z,20.8
2022-09-01T10:10:59.240Z,20.9
2022-09-01T10:12:50.100Z,21.0
2022-09-01T10:14:54.001Z,21.0
2022-09-01T10:16:52.979Z,21.1
2022-09-01T10:18:52.159Z,21.2
2022-09-01T10:20:50.702Z,21.3
2022-09-01T10:22:51.271Z,21.4
2022-09-01T10:24:51.142Z,21.4
2022-09-01T10:26:50.310Z,21.6
2022-09-01T10:28:51.273Z,21.6
2022-09-01T10:30:50.420Z,21.7
2022-09-01T10:33:07.911Z,21.7
2022-09-01T10:34:50.405Z,21.8
2022-09-01T10:36:59.316Z,21.8
2022-09-01T10:39:08.851Z,21.9
2022-09-01T10:40:51.195Z,22.0
2022-09-01T10:42:52.322Z,22.1
2022-09-01T10:44:50.554Z,22.2
2022-09-01T10:46:59.814Z,22.2
2022-09-01T10:49:04.829Z,22.3
2022-09-01T10:50:50.343Z,22.5
2022-09-01T10:52:54.073Z,22.6
2022-09-01T10:54:56.008Z,22.6
2022-09-01T10:56:52.411Z,22.7
2022-09-01T10:59:37.599Z,22.8
2022-09-01T11:01:26.059Z,22.8
2022-09-01T11:02:50.420Z,22.8
2022-09-01T11:04:50.654Z,22.8
2022-09-01T11:07:13.380Z,23.0
2022-09-01T11:08:51.565Z,23.0
2022-09-01T11:10:50.989Z,23.0
2022-09-01T11:12:50.212Z,23.0
2022-09-01T11:14:50.759Z,23.1
2022-09-01T11:16:51.147Z,23.1
2022-09-01T11:18:50.448Z,23.1
2022-09-01T11:20:50.385Z,23.1
2022-09-01T11:22:50.062Z,23.1
2022-09-01T11:25:12.945Z,23.2
2022-09-01T11:26:50.100Z,23.2
2022-09-01T11:28:50.622Z,23.2
2022-09-01T11:30:50.243Z,23.2
2022-09-01T11:32:50.239Z,23.2
2022-09-01T11:34:50.665Z,23.2
2022-09-01T11:36:52.181Z,23.1
2022-09-01T11:38:50.083Z,23.1
2022-09-01T11:40:51.044Z,23.1
2022-09-01T11:42:50.161Z,23.1
2022-09-01T11:44:50.364Z,23.2
2022-09-01T11:46:50.598Z,23.2
2022-09-01T11:48:52.551Z,23.2
2022-09-01T11:50:50.604Z,23.2
2022-09-01T11:52:50.470Z,23.2
2022-09-01T11:54:50.724Z,23.2
2022-09-01T11:56:50.030Z,23.2
2022-09-01T11:58:50.002Z,23.2
2022-09-01T12:00:50.068Z,23.3
2022-09-01T12:02:51.678Z,23.3
2022-09-01T12:04:50.073Z,23.4
2022-09-01T12:06:50.318Z,23.4
2022-09-01T12:08:50.210Z,23.4
2022-09-01T12:10:50.207Z,23.4
2022-09-01T12:12:50.406Z,23.4
2022-09-01T12:15:07.098Z,23.3
2022-09-01T12:16:51.063Z,23.3
2022-09-01T12:18:50.211Z,23.3
2022-09-01T12:22:50.328Z,23.2
2022-09-01T12:24:50.121Z,23.2
2022-09-01T12:26:50.477Z,23.2
2022-09-01T12:28:50.553Z,23.2
2022-09-01T12:30:50.580Z,23.2
2022-09-01T12:32:51.401Z,23.2
2022-09-01T12:34:50.300Z,23.2
2022-09-01T12:36:50.575Z,23.3
2022-09-01T12:38:50.688Z,23.3
2022-09-01T12:40:51.139Z,23.3
2022-09-01T12:42:50.358Z,23.3
2022-09-01T12:44:51.063Z,23.2
2022-09-01T12:46:50.211Z,23.2
2022-09-01T12:48:50.838Z,23.3
2022-09-01T12:50:50.670Z,23.2
2022-09-01T12:52:53.062Z,23.4
2022-09-01T12:54:49.983Z,23.4
2022-09-01T12:56:50.157Z,23.4
2022-09-01T12:58:51.878Z,23.4
2022-09-01T13:00:51.125Z,23.4
2022-09-01T13:02:51.259Z,23.4
2022-09-01T13:04:50.764Z,23.4
2022-09-01T13:06:50.266Z,23.4
2022-09-01T13:08:49.939Z,23.5
2022-09-01T13:10:49.976Z,23.6
2022-09-01T13:12:49.960Z,23.6
2022-09-01T13:14:49.982Z,23.6
2022-09-01T13:16:50.395Z,23.6
2022-09-01T13:19:11.606Z,23.6
2022-09-01T13:20:50.100Z,23.6
2022-09-01T13:22:50.927Z,23.6
2022-09-01T13:24:50.169Z,23.6
2022-09-01T13:27:20.980Z,23.6
2022-09-01T13:28:50.032Z,23.6
2022-09-01T13:31:34.254Z,23.6
2022-09-01T13:33:21.100Z,23.6
2022-09-01T13:34:52.561Z,23.6
2022-09-01T13:36:53.227Z,23.5
2022-09-01T13:38:57.078Z,23.4
2022-09-01T13:40:50.503Z,23.3
2022-09-01T13:42:50.032Z,23.3
2022-09-01T13:44:57.255Z,23.3
2022-09-01T13:47:30.607Z,23.2
2022-09-01T13:49:44.328Z,23.2
2022-09-01T13:51:18.649Z,23.3
2022-09-01T13:52:55.790Z,23.4
2022-09-01T13:54:50.628Z,23.4
2022-09-01T13:56:49.931Z,23.5
2022-09-01T13:58:50.750Z,23.6
2022-09-01T14:00:50.857Z,23.6
2022-09-01T14:02:50.071Z,23.6
2022-09-01T14:04:50.517Z,23.6
2022-09-01T14:06:49.929Z,23.5
2022-09-01T14:08:50.843Z,23.5
2022-09-01T14:10:51.333Z,23.5
2022-09-01T14:12:50.360Z,23.5
2022-09-01T14:15:16.437Z,23.7
2022-09-01T14:16:50.631Z,23.7
2022-09-01T14:18:50.654Z,23.8
2022-09-01T14:20:50.817Z,23.9
2022-09-01T14:22:50.191Z,23.9
2022-09-01T14:24:50.083Z,24.0
2022-09-01T14:26:50.392Z,24.0
2022-09-01T14:28:50.255Z,24.1
2022-09-01T14:32:49.946Z,24.1
2022-09-01T14:34:50.685Z,24.2
2022-09-01T14:36:50.836Z,24.2
2022-09-01T14:38:50.622Z,24.3
2022-09-01T14:40:51.035Z,24.3
2022-09-01T14:42:50.230Z,24.4
2022-09-01T14:44:50.346Z,24.4
2022-09-01T14:46:52.092Z,24.5
2022-09-01T14:48:50.100Z,24.6
2022-09-01T14:50:50.224Z,24.6
2022-09-01T14:52:50.350Z,24.5
2022-09-01T14:54:50.195Z,24.4
2022-09-01T14:57:29.290Z,24.4
2022-09-01T14:58:50.752Z,24.2
2022-09-01T15:00:50.785Z,24.0
2022-09-01T15:02:49.937Z,23.9
2022-09-01T15:04:50.635Z,23.7
2022-09-01T15:06:50.874Z,23.6
2022-09-01T15:08:50.727Z,23.6
2022-09-01T15:10:50.750Z,23.4
2022-09-01T15:12:50.611Z,23.3
2022-09-01T15:14:50.537Z,23.2
2022-09-01T15:16:50.755Z,23.2
2022-09-01T15:18:50.049Z,23.0
2022-09-01T15:20:50.212Z,22.9
2022-09-01T15:22:50.784Z,22.8
2022-09-01T15:24:50.743Z,22.7
2022-09-01T15:26:50.274Z,22.6
2022-09-01T15:28:50.161Z,22.6
2022-09-01T15:30:50.039Z,22.5
2022-09-01T15:32:50.150Z,22.4
2022-09-01T15:34:50.598Z,22.4
2022-09-01T15:36:50.825Z,22.3
2022-09-01T15:38:50.555Z,22.3
2022-09-01T15:40:59.272Z,22.2
2022-09-01T15:42:50.158Z,22.2
2022-09-01T15:44:50.715Z,22.1
2022-09-01T15:46:51.164Z,22.1
2022-09-01T15:48:50.149Z,22.1
2022-09-01T15:50:50.233Z,22.0
2022-09-01T15:52:50.016Z,22.0
2022-09-01T15:54:50.073Z,22.0
2022-09-01T15:56:50.260Z,21.9
2022-09-01T15:59:02.634Z,21.9
2022-09-01T16:00:50.572Z,21.9
2022-09-01T16:02:49.978Z,21.9
2022-09-01T16:04:50.424Z,21.9
2022-09-01T16:06:50.760Z,21.9
2022-09-01T16:08:50.781Z,21.9
2022-09-01T16:10:52.525Z,21.9
2022-09-01T16:12:50.212Z,21.9
2022-09-01T16:14:50.012Z,21.8
2022-09-01T16:16:50.235Z,21.8
2022-09-01T16:18:50.665Z,21.8
2022-09-01T16:20:50.614Z,21.8
2022-09-01T16:22:49.989Z,21.8
2022-09-01T16:24:50.016Z,21.8
2022-09-01T16:26:50.407Z,21.7
2022-09-01T16:28:50.647Z,21.7
2022-09-01T16:30:50.524Z,21.7
2022-09-01T16:32:50.389Z,21.7
2022-09-01T16:34:50.689Z,21.6
2022-09-01T16:36:50.788Z,21.6
2022-09-01T16:38:50.887Z,21.6
2022-09-01T16:40:50.404Z,21.6
2022-09-01T16:42:58.551Z,21.5
2022-09-01T16:44:50.489Z,21.5
2022-09-01T16:46:50.980Z,21.4
2022-09-01T16:48:51.867Z,21.4
2022-09-01T16:50:55.886Z,21.4
2022-09-01T16:52:49.924Z,21.4
2022-09-01T16:54:51.775Z,21.3
2022-09-01T16:56:50.086Z,21.3
2022-09-01T16:58:50.732Z,21.2
2022-09-01T17:00:57.460Z,21.2
2022-09-01T17:02:50.668Z,21.1
2022-09-01T17:04:51.572Z,21.1
2022-09-01T17:06:50.565Z,21.0
2022-09-01T17:08:50.129Z,21.0
2022-09-01T17:10:50.934Z,21.0
2022-09-01T17:12:50.886Z,21.0
2022-09-01T17:14:50.484Z,20.9
2022-09-01T17:16:50.138Z,20.8
2022-09-01T17:18:50.352Z,20.8
2022-09-01T17:20:59.177Z,20.8
2022-09-01T17:22:50.177Z,20.7
2022-09-01T17:24:50.136Z,20.7
2022-09-01T17:26:50.597Z,20.6
2022-09-01T17:28:50.517Z,20.5
2022-09-01T17:30:50.868Z,20.5
2022-09-01T17:32:50.821Z,20.5
2022-09-01T17:34:50.145Z,20.4
2022-09-01T17:36:50.268Z,20.3
2022-09-01T17:38:50.068Z,20.2
2022-09-01T17:40:51.015Z,20.2
2022-09-01T17:42:50.764Z,20.2
2022-09-01T17:44:49.974Z,20.1
2022-09-01T17:46:50.686Z,20.0
2022-09-01T17:48:50.662Z,19.9
2022-09-01T17:50:50.620Z,19.9
2022-09-01T17:52:53.506Z,19.8
2022-09-01T17:54:50.448Z,19.7
2022-09-01T17:56:49.951Z,19.7
2022-09-01T17:58:50.300Z,19.6
2022-09-01T18:00:50.162Z,19.6
2022-09-01T18:02:49.945Z,19.5
2022-09-01T18:04:50.409Z,19.4
2022-09-01T18:06:50.637Z,19.4
2022-09-01T18:08:52.615Z,19.4
2022-09-01T18:10:50.552Z,19.3
2022-09-01T18:12:50.397Z,19.2
2022-09-01T18:14:50.277Z,19.2
2022-09-01T18:16:50.224Z,19.2
2022-09-01T18:18:50.875Z,19.0
2022-09-01T18:20:50.826Z,19.0
2022-09-01T18:22:50.977Z,18.9
2022-09-01T18:24:50.864Z,18.8
2022-09-01T18:26:50.640Z,18.8
2022-09-01T18:28:50.814Z,18.8
2022-09-01T18:30:53.793Z,18.7
2022-09-01T18:32:50.826Z,18.6
2022-09-01T18:34:50.374Z,18.6
2022-09-01T18:36:50.743Z,18.6
2022-09-01T18:38:50.813Z,18.5
2022-09-01T18:40:50.438Z,18.4
2022-09-01T18:42:50.704Z,18.3
2022-09-01T18:44:50.720Z,18.2
2022-09-01T18:46:50.371Z,18.2
2022-09-01T18:48:49.915Z,18.2
2022-09-01T18:50:50.451Z,18.0
2022-09-01T18:52:50.125Z,18.0
2022-09-01T18:54:49.970Z,18.0
2022-09-01T18:56:50.715Z,17.9
2022-09-01T18:58:50.890Z,17.8
2022-09-01T19:00:54.303Z,17.8
2022-09-01T19:02:50.713Z,17.7
2022-09-01T19:04:50.348Z,17.7
2022-09-01T19:06:50.485Z,17.6
2022-09-01T19:08:50.516Z,17.6
2022-09-01T19:10:50.381Z,17.5
2022-09-01T19:12:50.241Z,17.5
2022-09-01T19:14:50.536Z,17.4
2022-09-01T19:16:50.237Z,17.4
2022-09-01T19:18:50.011Z,17.3
2022-09-01T19:20:50.400Z,17.3
2022-09-01T19:22:50.302Z,17.3
2022-09-01T19:24:50.076Z,17.2
2022-09-01T19:26:50.381Z,17.1
2022-09-01T19:28:50.186Z,17.1
2022-09-01T19:30:50.109Z,17.0
2022-09-01T19:32:50.054Z,17.0
2022-09-01T19:34:50.440Z,16.9
2022-09-01T19:36:50.782Z,16.9
2022-09-01T19:38:50.403Z,16.8
2022-09-01T19:40:50.231Z,16.8
2022-09-01T19:42:50.218Z,16.7
2022-09-01T19:44:50.182Z,16.7
2022-09-01T19:46:50.175Z,16.6
2022-09-01T19:48:50.033Z,16.6
2022-09-01T19:50:51.606Z,16.6
2022-09-01T19:52:50.634Z,16.5
2022-09-01T19:54:50.587Z,16.5
2022-09-01T19:56:50.272Z,16.4
2022-09-01T19:58:50.072Z,16.3
2022-09-01T20:00:51.892Z,16.3
2022-09-01T20:02:50.959Z,16.2
2022-09-01T20:04:57.665Z,16.2
2022-09-01T20:06:50.778Z,16.2
2022-09-01T20:08:50.761Z,16.1
2022-09-01T20:10:57.159Z,16.1
2022-09-01T20:12:50.280Z,16.1
2022-09-01T20:14:50.701Z,16.0
2022-09-01T20:16:50.767Z,16.0
2022-09-01T20:18:53.863Z,15.9
2022-09-01T20:20:50.634Z,15.9
2022-09-01T20:22:50.657Z,15.9
2022-09-01T20:24:58.815Z,15.8
2022-09-01T20:26:50.540Z,15.8
2022-09-01T20:28:51.221Z,15.7
2022-09-01T20:30:50.973Z,15.7
2022-09-01T20:32:50.035Z,15.7
2022-09-01T20:34:50.490Z,15.6
2022-09-01T20:36:50.883Z,15.5
2022-09-01T20:38:50.894Z,15.5
2022-09-01T20:40:50.880Z,15.5
2022-09-01T20:42:50.842Z,15.4
2022-09-01T20:44:50.236Z,15.4
2022-09-01T20:46:50.820Z,15.4
2022-09-01T20:48:50.700Z,15.4
2022-09-01T20:50:50.639Z,15.4
2022-09-01T20:52:50.700Z,15.3
2022-09-01T20:54:50.232Z,15.3
2022-09-01T20:56:50.472Z,15.3
2022-09-01T21:00:50.589Z,15.2
2022-09-01T21:02:51.104Z,15.1
2022-09-01T21:04:50.826Z,15.1
2022-09-01T21:06:50.792Z,15.1
2022-09-01T21:08:49.974Z,15.0
2022-09-01T21:10:50.591Z,15.0
2022-09-01T21:12:50.737Z,15.0
2022-09-01T21:14:50.512Z,14.9
2022-09-01T21:16:50.254Z,14.9
2022-09-01T21:18:50.602Z,14.8
2022-09-01T21:20:49.918Z,14.8
2022-09-01T21:22:50.865Z,14.8
2022-09-01T21:24:50.538Z,14.7
2022-09-01T21:26:50.660Z,14.7
2022-09-01T21:28:52.170Z,14.7
2022-09-01T21:30:50.428Z,14.7
2022-09-01T21:32:50.446Z,14.6
2022-09-01T21:34:50.693Z,14.6
2022-09-01T21:36:55.815Z,14.6
2022-09-01T21:38:50.816Z,14.6
2022-09-01T21:40:50.976Z,14.6
2022-09-01T21:42:50.270Z,14.5
2022-09-01T21:44:54.457Z,14.5
2022-09-01T21:46:50.833Z,14.5
2022-09-01T21:48:50.687Z,14.4
2022-09-01T21:50:50.868Z,14.4
2022-09-01T21:52:50.648Z,14.4
2022-09-01T21:54:50.646Z,14.4
2022-09-01T21:56:50.795Z,14.4
2022-09-01T21:58:50.760Z,14.4
2022-09-01T22:00:50.839Z,14.4
2022-09-01T22:02:51.156Z,14.4
2022-09-01T22:04:50.833Z,14.4
2022-09-01T22:06:50.162Z,14.5
2022-09-01T22:08:53.238Z,14.5
2022-09-01T22:10:50.130Z,14.6
2022-09-01T22:12:50.010Z,14.6
2022-09-01T22:14:50.895Z,14.6
2022-09-01T22:16:50.521Z,14.6
2022-09-01T22:18:51.849Z,14.6
2022-09-01T22:20:50.841Z,14.6
2022-09-01T22:22:50.718Z,14.6
2022-09-01T22:24:50.486Z,14.6
2022-09-01T22:26:50.644Z,14.6
2022-09-01T22:28:50.627Z,14.5
2022-09-01T22:30:50.676Z,14.5
2022-09-01T22:32:50.693Z,14.5
2022-09-01T22:34:50.258Z,14.5
2022-09-01T22:36:50.414Z,14.4
2022-09-01T22:38:50.669Z,14.4
2022-09-01T22:40:50.794Z,14.4
2022-09-01T22:42:51.189Z,14.4
2022-09-01T22:44:50.882Z,14.4
2022-09-01T22:46:50.003Z,14.3
2022-09-01T22:48:50.715Z,14.3
2022-09-01T22:50:50.614Z,14.3
2022-09-01T22:52:50.742Z,14.3
2022-09-01T22:54:50.624Z,14.2
2022-09-01T22:56:50.383Z,14.2
2022-09-01T22:58:50.267Z,14.2
2022-09-01T23:00:50.495Z,14.2
2022-09-01T23:02:50.700Z,14.2
2022-09-01T23:04:50.341Z,14.2
2022-09-01T23:06:50.521Z,14.2
2022-09-01T23:08:50.480Z,14.1
2022-09-01T23:10:50.303Z,14.1
2022-09-01T23:12:50.449Z,14.1
2022-09-01T23:14:50.230Z,14.1
2022-09-01T23:16:52.428Z,14.1
2022-09-01T23:18:50.472Z,14.0
2022-09-01T23:20:50.378Z,14.0
2022-09-01T23:22:50.361Z,14.0
2022-09-01T23:24:52.106Z,14.0
2022-09-01T23:26:50.195Z,14.0
2022-09-01T23:28:50.061Z,14.0
2022-09-01T23:30:50.020Z,14.0
2022-09-01T23:32:50.875Z,13.9
2022-09-01T23:34:50.220Z,13.9
2022-09-01T23:36:50.068Z,13.9
2022-09-01T23:38:50.904Z,13.9
2022-09-01T23:40:51.081Z,13.9
2022-09-01T23:42:50.156Z,13.9
2022-09-01T23:44:50.034Z,13.9
2022-09-01T23:46:50.284Z,13.9
2022-09-01T23:48:50.276Z,13.8
2022-09-01T23:50:50.373Z,13.8
2022-09-01T23:52:50.068Z,13.8
2022-09-01T23:54:50.080Z,13.8
2022-09-01T23:56:50.222Z,13.8
2022-09-01T23:58:50.147Z,13.8
